Pagrindinis puslapis
METAR-TAF:

METAR-TAF

Oro uostai :

Tartu, Estija

platuma: 58-18N, ilguma: 026-44E, Aukštis: 59 m

Dabartinis oras

Ataskaita buvo paskelbta 17 minutes, ne 09:50 UTC
Vėjas 14 kt iš Pietvakarių
Temperatūra 5°C
Drėgmė 87%
Slėgis 998 hPa
Matomumas 10 km arba daugiau
Su prošvaistėmis ne aukštis 2200 ft
Apsiniaukę ne aukštis 3200 ft

METAR: EETU 180950Z 23014KT 9999 BKN022 OVC032 05/03 Q0998

Laikas: 12:07 (10:07 UTC)

Prognozė

Ataskaita buvo paskelbta 13 valandos ir 7 minutes, ne 21:00 UTC
Prognozė galioja nuo 17 metu 22 UTC su 18 metu 04 UTC
Vėjas 20 kt iš Pietvakarių su gūsio iki 32 kt
Matomumas 10 km arba daugiau
Su prošvaistėmis ne aukštis 2500 ft
Laikinai
nuo 17 metu 22 UTC su 18 metu 04 UTC
Matomumas: 5000 m
Su prošvaistėmis ne aukštis 1000 ft
Išsisklaidę debesys ne aukštis 1500 ft, Liūtiniai kamuoliniai debesys.
lietus

TAF: EETU 172100Z 1722/1804 22020G32KT 9999 BKN025 TEMPO 1722/1804 5000 SHRA BKN010 SCT015CB

Orai ataskaitas ir orų prognozės (METAR, TAF).

turimą stotys yra geltonos ir raudonos taškus žemėlapyje.

Perkelti pele per norėdami pamatyti stoties vardą.

Tada spustelėkite, norėdami matyti oro stebėjimo ir prognozės.

Norėdami pakeisti žemėlapį: spustelėkite ant žalios mygtukų su juodo kryžiaus žemyn,; žalią mygtuką su brūkšneliu, jei norite nutolinti; arba žalių rodyklių gretimoms žemėlapius.


METAR-TAF: